createdAt,value
2023-12-23T00:00:42.968Z,796.00
2023-12-23T00:01:42.966Z,796.00
2023-12-23T00:02:42.911Z,797.00
2023-12-23T00:03:42.949Z,798.00
2023-12-23T00:04:42.952Z,793.00
2023-12-23T00:05:42.925Z,799.00
2023-12-23T00:06:42.929Z,800.00
2023-12-23T00:07:42.945Z,799.00
2023-12-23T00:08:42.930Z,799.00
2023-12-23T00:09:42.944Z,796.00
2023-12-23T00:10:42.945Z,794.00
2023-12-23T00:11:42.939Z,793.00
2023-12-23T00:12:42.990Z,791.00
2023-12-23T00:13:42.954Z,792.00
2023-12-23T00:14:42.943Z,791.00
2023-12-23T00:15:42.934Z,791.00
2023-12-23T00:16:42.950Z,787.00
2023-12-23T00:17:44.541Z,788.00
2023-12-23T00:18:43.294Z,787.00
2023-12-23T00:19:43.352Z,788.00
2023-12-23T00:20:43.390Z,789.00
2023-12-23T00:21:43.400Z,787.00
2023-12-23T00:22:43.463Z,786.00
2023-12-23T00:23:43.497Z,783.00
2023-12-23T00:24:43.559Z,782.00
2023-12-23T00:25:43.644Z,784.00
2023-12-23T00:26:43.682Z,784.00
2023-12-23T00:27:43.767Z,785.00
2023-12-23T00:28:43.846Z,783.00
2023-12-23T00:29:43.856Z,782.00
2023-12-23T00:30:43.956Z,780.00
2023-12-23T00:31:43.997Z,780.00
2023-12-23T00:32:44.066Z,779.00
2023-12-23T00:33:44.137Z,780.00
2023-12-23T00:34:44.199Z,783.00
2023-12-23T00:35:44.227Z,785.00
2023-12-23T00:36:44.302Z,788.00
2023-12-23T00:37:44.409Z,788.00
2023-12-23T00:38:44.406Z,784.00
2023-12-23T00:39:44.508Z,783.00
2023-12-23T00:40:44.546Z,783.00
2023-12-23T00:41:44.571Z,781.00
2023-12-23T00:42:44.636Z,781.00
2023-12-23T00:43:44.762Z,780.00
2023-12-23T00:44:44.745Z,777.00
2023-12-23T00:45:44.793Z,777.00
2023-12-23T00:46:44.860Z,779.00
2023-12-23T00:47:44.947Z,778.00
2023-12-23T00:48:45.036Z,778.00
2023-12-23T00:49:45.056Z,779.00
2023-12-23T00:50:45.081Z,778.00
2023-12-23T00:51:45.143Z,777.00
2023-12-23T00:52:45.218Z,777.00
2023-12-23T00:53:48.216Z,777.00
2023-12-23T00:54:45.252Z,779.00
2023-12-23T00:55:45.292Z,777.00
2023-12-23T00:56:45.261Z,776.00
2023-12-23T00:57:45.254Z,778.00
2023-12-23T00:58:45.296Z,780.00
2023-12-23T00:59:45.255Z,774.00
2023-12-23T01:00:45.278Z,772.00
2023-12-23T01:01:45.308Z,773.00
2023-12-23T01:02:45.264Z,776.00
2023-12-23T01:03:45.332Z,778.00
2023-12-23T01:04:45.318Z,779.00
2023-12-23T01:05:45.269Z,781.00
2023-12-23T01:06:45.286Z,782.00
2023-12-23T01:07:45.307Z,782.00
2023-12-23T01:08:45.264Z,782.00
2023-12-23T01:09:45.264Z,780.00
2023-12-23T01:10:45.285Z,780.00
2023-12-23T01:11:45.282Z,778.00
2023-12-23T01:12:45.274Z,776.00
2023-12-23T01:13:45.279Z,776.00
2023-12-23T01:14:45.281Z,771.00
2023-12-23T01:15:45.288Z,770.00
2023-12-23T01:16:45.307Z,771.00
2023-12-23T01:17:45.298Z,772.00
2023-12-23T01:18:45.802Z,771.00
2023-12-23T01:19:45.296Z,768.00
2023-12-23T01:20:45.302Z,769.00
2023-12-23T01:21:45.325Z,771.00
2023-12-23T01:22:45.423Z,770.00
2023-12-23T01:23:45.453Z,771.00
2023-12-23T01:24:45.521Z,773.00
2023-12-23T01:25:45.621Z,772.00
2023-12-23T01:26:45.647Z,771.00
2023-12-23T01:27:45.821Z,770.00
2023-12-23T01:28:45.765Z,772.00
2023-12-23T01:29:45.823Z,773.00
2023-12-23T01:30:45.916Z,773.00
2023-12-23T01:31:46.024Z,773.00
2023-12-23T01:32:46.100Z,772.00
2023-12-23T01:33:46.144Z,769.00
2023-12-23T01:34:46.172Z,769.00
2023-12-23T01:35:46.208Z,768.00
2023-12-23T01:36:46.277Z,767.00
2023-12-23T01:37:46.365Z,766.00
2023-12-23T01:38:46.405Z,764.00
2023-12-23T01:39:46.450Z,765.00
2023-12-23T01:40:46.541Z,763.00
2023-12-23T01:41:46.579Z,761.00
2023-12-23T01:42:46.642Z,763.00
2023-12-23T01:43:46.776Z,764.00
2023-12-23T01:44:46.758Z,764.00
2023-12-23T01:45:46.813Z,764.00
2023-12-23T01:46:46.903Z,762.00
2023-12-23T01:47:47.038Z,762.00
2023-12-23T01:48:47.074Z,762.00
2023-12-23T01:49:47.112Z,763.00
2023-12-23T01:50:47.145Z,764.00
2023-12-23T01:51:47.203Z,764.00
2023-12-23T01:52:47.320Z,766.00
2023-12-23T01:53:47.346Z,763.00
2023-12-23T01:54:47.402Z,761.00
2023-12-23T01:55:47.470Z,764.00
2023-12-23T01:56:47.535Z,760.00
2023-12-23T01:57:47.769Z,759.00
2023-12-23T01:58:47.683Z,755.00
2023-12-23T01:59:47.726Z,752.00
2023-12-23T02:00:47.842Z,753.00
2023-12-23T02:01:47.972Z,752.00
2023-12-23T02:02:48.159Z,753.00
2023-12-23T02:03:48.033Z,756.00
2023-12-23T02:04:48.125Z,756.00
2023-12-23T02:05:48.151Z,756.00
2023-12-23T02:06:48.183Z,751.00
2023-12-23T02:07:48.282Z,749.00
2023-12-23T02:08:48.310Z,745.00
2023-12-23T02:09:48.372Z,746.00
2023-12-23T02:10:48.470Z,746.00
2023-12-23T02:11:48.517Z,748.00
2023-12-23T02:12:48.684Z,747.00
2023-12-23T02:13:48.663Z,747.00
2023-12-23T02:14:48.752Z,744.00
2023-12-23T02:15:48.843Z,744.00
2023-12-23T02:16:48.878Z,743.00
2023-12-23T02:17:49.017Z,746.00
2023-12-23T02:18:49.018Z,747.00
2023-12-23T02:19:49.078Z,744.00
2023-12-23T02:20:49.107Z,745.00
2023-12-23T02:21:49.181Z,744.00
2023-12-23T02:22:49.592Z,746.00
2023-12-23T02:23:51.566Z,747.00
2023-12-23T02:24:49.374Z,748.00
2023-12-23T02:25:49.434Z,750.00
2023-12-23T02:26:49.493Z,749.00
2023-12-23T02:27:49.548Z,750.00
2023-12-23T02:28:49.661Z,749.00
2023-12-23T02:29:49.685Z,747.00
2023-12-23T02:30:49.769Z,747.00
2023-12-23T02:31:49.790Z,750.00
2023-12-23T02:32:50.098Z,751.00
2023-12-23T02:33:49.964Z,750.00
2023-12-23T02:34:49.959Z,749.00
2023-12-23T02:35:50.013Z,747.00
2023-12-23T02:36:50.102Z,743.00
2023-12-23T02:37:50.130Z,743.00
2023-12-23T02:38:50.165Z,742.00
2023-12-23T02:39:50.196Z,743.00
2023-12-23T02:40:50.303Z,744.00
2023-12-23T02:41:50.350Z,742.00
2023-12-23T02:42:50.646Z,742.00
2023-12-23T02:43:50.521Z,740.00
2023-12-23T02:44:50.541Z,740.00
2023-12-23T02:45:50.625Z,738.00
2023-12-23T02:46:50.689Z,737.00
2023-12-23T02:47:50.817Z,735.00
2023-12-23T02:48:50.933Z,735.00
2023-12-23T02:49:50.916Z,736.00
2023-12-23T02:50:51.897Z,736.00
2023-12-23T02:51:51.018Z,733.00
2023-12-23T02:52:51.486Z,733.00
2023-12-23T02:53:51.157Z,732.00
2023-12-23T02:54:51.228Z,735.00
2023-12-23T02:55:51.372Z,737.00
2023-12-23T02:56:51.368Z,737.00
2023-12-23T02:57:51.420Z,738.00
2023-12-23T02:58:54.409Z,738.00
2023-12-23T02:59:51.486Z,737.00
2023-12-23T03:00:51.513Z,736.00
2023-12-23T03:01:51.534Z,735.00
2023-12-23T03:02:51.675Z,733.00
2023-12-23T03:03:51.484Z,732.00
2023-12-23T03:04:51.524Z,734.00
2023-12-23T03:05:51.509Z,731.00
2023-12-23T03:06:51.504Z,731.00
2023-12-23T03:07:51.505Z,728.00
2023-12-23T03:08:51.496Z,728.00
2023-12-23T03:09:51.498Z,726.00
2023-12-23T03:10:51.544Z,725.00
2023-12-23T03:11:51.498Z,725.00
2023-12-23T03:12:51.718Z,724.00
2023-12-23T03:13:51.533Z,729.00
2023-12-23T03:14:51.504Z,728.00
2023-12-23T03:15:51.494Z,728.00
2023-12-23T03:16:51.530Z,730.00
2023-12-23T03:17:51.571Z,733.00
2023-12-23T03:18:51.566Z,733.00
2023-12-23T03:19:51.552Z,733.00
2023-12-23T03:20:51.514Z,733.00
2023-12-23T03:21:51.517Z,733.00
2023-12-23T03:22:51.844Z,730.00
2023-12-23T03:23:51.520Z,727.00
2023-12-23T03:24:51.518Z,728.00
2023-12-23T03:25:51.552Z,730.00
2023-12-23T03:26:51.526Z,728.00
2023-12-23T03:27:51.520Z,727.00
2023-12-23T03:28:51.540Z,725.00
2023-12-23T03:29:51.515Z,725.00
2023-12-23T03:30:51.578Z,725.00
2023-12-23T03:31:51.664Z,729.00
2023-12-23T03:32:51.981Z,731.00
2023-12-23T03:33:51.690Z,731.00
2023-12-23T03:34:51.728Z,732.00
2023-12-23T03:35:51.757Z,728.00
2023-12-23T03:36:51.785Z,726.00
2023-12-23T03:37:51.852Z,725.00
2023-12-23T03:38:51.852Z,723.00
2023-12-23T03:39:51.888Z,723.00
2023-12-23T03:40:51.953Z,722.00
2023-12-23T03:41:51.986Z,722.00
2023-12-23T03:42:52.196Z,723.00
2023-12-23T03:43:52.139Z,724.00
2023-12-23T03:44:52.128Z,724.00
2023-12-23T03:45:52.186Z,725.00
2023-12-23T03:46:52.279Z,728.00
2023-12-23T03:47:52.350Z,731.00
2023-12-23T03:48:52.503Z,727.00
2023-12-23T03:49:52.432Z,724.00
2023-12-23T03:50:52.461Z,724.00
2023-12-23T03:51:52.493Z,724.00
2023-12-23T03:52:52.906Z,723.00
2023-12-23T03:53:52.611Z,723.00
2023-12-23T03:54:52.643Z,718.00
2023-12-23T03:55:52.740Z,722.00
2023-12-23T03:56:52.774Z,723.00
2023-12-23T03:57:52.836Z,727.00
2023-12-23T03:58:52.923Z,727.00
2023-12-23T03:59:52.959Z,727.00
2023-12-23T04:00:53.053Z,728.00
2023-12-23T04:01:53.144Z,726.00
2023-12-23T04:02:53.422Z,727.00
2023-12-23T04:03:53.207Z,724.00
2023-12-23T04:04:53.293Z,722.00
2023-12-23T04:05:53.301Z,720.00
2023-12-23T04:06:53.451Z,720.00
2023-12-23T04:07:53.416Z,722.00
2023-12-23T04:08:53.467Z,722.00
2023-12-23T04:09:53.503Z,721.00
2023-12-23T04:10:53.555Z,721.00
2023-12-23T04:11:53.597Z,722.00
2023-12-23T04:12:53.752Z,723.00
2023-12-23T04:13:53.706Z,724.00
2023-12-23T04:14:53.736Z,721.00
2023-12-23T04:16:00.902Z,737.00
2023-12-23T04:17:00.932Z,734.00
2023-12-23T04:18:01.016Z,730.00
2023-12-23T04:19:00.969Z,727.00
2023-12-23T04:20:00.966Z,728.00
2023-12-23T04:21:00.893Z,727.00
2023-12-23T04:22:00.904Z,727.00
2023-12-23T04:23:00.932Z,728.00
2023-12-23T04:24:00.917Z,724.00
2023-12-23T04:25:00.911Z,721.00
2023-12-23T04:26:01.010Z,720.00
2023-12-23T04:27:00.907Z,716.00
2023-12-23T04:28:00.927Z,715.00
2023-12-23T04:29:00.941Z,716.00
2023-12-23T04:30:00.954Z,719.00
2023-12-23T04:31:08.255Z,728.00
2023-12-23T04:32:08.160Z,724.00
2023-12-23T04:33:08.172Z,723.00
2023-12-23T04:34:08.135Z,724.00
2023-12-23T04:35:08.120Z,721.00
2023-12-23T04:36:08.134Z,721.00
2023-12-23T04:37:08.120Z,721.00
2023-12-23T04:38:08.182Z,720.00
2023-12-23T04:39:08.148Z,718.00
2023-12-23T04:40:08.116Z,717.00
2023-12-23T04:41:08.145Z,717.00
2023-12-23T04:42:08.121Z,718.00
2023-12-23T04:43:08.121Z,718.00
2023-12-23T04:44:08.182Z,718.00
2023-12-23T04:45:08.167Z,718.00
2023-12-23T04:46:08.132Z,720.00
2023-12-23T04:47:08.157Z,719.00
2023-12-23T04:48:08.201Z,716.00
2023-12-23T04:49:08.147Z,716.00
2023-12-23T04:50:08.181Z,714.00
2023-12-23T04:51:08.136Z,716.00
2023-12-23T04:52:08.134Z,717.00
2023-12-23T04:53:08.176Z,714.00
2023-12-23T04:54:08.137Z,713.00
2023-12-23T04:55:08.136Z,714.00
2023-12-23T04:56:08.158Z,712.00
2023-12-23T04:57:08.135Z,712.00
2023-12-23T04:58:08.135Z,714.00
2023-12-23T04:59:08.251Z,714.00
2023-12-23T05:00:08.155Z,714.00
2023-12-23T05:01:08.185Z,714.00
2023-12-23T05:02:08.166Z,715.00
2023-12-23T05:03:08.184Z,714.00
2023-12-23T05:04:08.146Z,714.00
2023-12-23T05:05:08.245Z,711.00
2023-12-23T05:06:08.178Z,710.00
2023-12-23T05:07:08.146Z,711.00
2023-12-23T05:08:08.202Z,710.00
2023-12-23T05:09:08.161Z,709.00
2023-12-23T05:10:08.141Z,710.00
2023-12-23T05:11:08.209Z,712.00
2023-12-23T05:12:08.155Z,713.00
2023-12-23T05:13:08.160Z,713.00
2023-12-23T05:14:08.194Z,712.00
2023-12-23T05:15:08.160Z,710.00
2023-12-23T05:16:08.153Z,710.00
2023-12-23T05:17:08.172Z,709.00
2023-12-23T05:18:08.183Z,708.00
2023-12-23T05:19:08.209Z,706.00
2023-12-23T05:20:08.174Z,708.00
2023-12-23T05:21:08.165Z,709.00
2023-12-23T05:22:08.166Z,706.00
2023-12-23T05:23:08.201Z,700.00
2023-12-23T05:24:08.170Z,702.00
2023-12-23T05:25:08.163Z,699.00
2023-12-23T05:26:08.209Z,701.00
2023-12-23T05:27:08.172Z,702.00
2023-12-23T05:28:08.173Z,701.00
2023-12-23T05:29:08.244Z,702.00
2023-12-23T05:30:08.223Z,702.00
2023-12-23T05:31:08.167Z,702.00
2023-12-23T05:32:08.335Z,702.00
2023-12-23T05:33:08.264Z,700.00
2023-12-23T05:34:08.181Z,703.00
2023-12-23T05:35:08.193Z,703.00
2023-12-23T05:36:08.171Z,703.00
2023-12-23T05:37:08.176Z,702.00
2023-12-23T05:38:08.194Z,706.00
2023-12-23T05:39:08.180Z,705.00
2023-12-23T05:40:08.171Z,703.00
2023-12-23T05:41:08.188Z,705.00
2023-12-23T05:42:08.179Z,706.00
2023-12-23T05:43:08.182Z,706.00
2023-12-23T05:44:08.198Z,706.00
2023-12-23T05:45:08.178Z,704.00
2023-12-23T05:46:08.183Z,702.00
2023-12-23T05:47:08.266Z,701.00
2023-12-23T05:48:08.319Z,700.00
2023-12-23T05:49:08.221Z,697.00
2023-12-23T05:50:08.222Z,693.00
2023-12-23T05:51:08.196Z,692.00
2023-12-23T05:52:08.203Z,689.00
2023-12-23T05:53:08.206Z,688.00
2023-12-23T05:54:08.195Z,688.00
2023-12-23T05:55:08.220Z,690.00
2023-12-23T05:56:08.316Z,687.00
2023-12-23T05:57:08.199Z,686.00
2023-12-23T05:58:08.189Z,686.00
2023-12-23T05:59:08.249Z,684.00
2023-12-23T06:00:10.432Z,685.00
2023-12-23T06:01:08.260Z,686.00
2023-12-23T06:02:08.255Z,687.00
2023-12-23T06:03:08.221Z,686.00
2023-12-23T06:04:08.191Z,685.00
2023-12-23T06:05:08.225Z,687.00
2023-12-23T06:06:08.249Z,691.00
2023-12-23T06:07:08.203Z,691.00
2023-12-23T06:08:08.214Z,691.00
2023-12-23T06:09:08.189Z,687.00
2023-12-23T06:10:08.217Z,687.00
2023-12-23T06:11:08.256Z,687.00
2023-12-23T06:12:08.207Z,690.00
2023-12-23T06:13:08.192Z,690.00
2023-12-23T06:14:08.229Z,692.00
2023-12-23T06:15:08.194Z,694.00
2023-12-23T06:16:08.213Z,693.00
2023-12-23T06:17:08.216Z,692.00
2023-12-23T06:18:08.261Z,692.00
2023-12-23T06:19:08.231Z,691.00
2023-12-23T06:20:08.240Z,688.00
2023-12-23T06:21:08.224Z,686.00
2023-12-23T06:22:08.210Z,686.00
2023-12-23T06:23:08.224Z,686.00
2023-12-23T06:24:08.206Z,687.00
2023-12-23T06:25:08.206Z,692.00
2023-12-23T06:26:08.232Z,692.00
2023-12-23T06:27:08.211Z,690.00
2023-12-23T06:28:08.221Z,690.00
2023-12-23T06:29:08.217Z,691.00
2023-12-23T06:30:08.241Z,689.00
2023-12-23T06:31:08.233Z,690.00
2023-12-23T06:32:08.251Z,689.00
2023-12-23T06:33:08.294Z,691.00
2023-12-23T06:34:08.489Z,691.00
2023-12-23T06:35:08.305Z,692.00
2023-12-23T06:36:08.235Z,693.00
2023-12-23T06:37:08.242Z,692.00
2023-12-23T06:38:08.274Z,695.00
2023-12-23T06:39:08.236Z,693.00
2023-12-23T06:40:08.257Z,692.00
2023-12-23T06:41:08.312Z,689.00
2023-12-23T06:42:08.258Z,682.00
2023-12-23T06:43:43.455Z,681.00
2023-12-23T06:44:09.298Z,681.00
2023-12-23T06:45:08.271Z,683.00
2023-12-23T06:46:08.249Z,682.00
2023-12-23T06:47:08.292Z,684.00
2023-12-23T06:48:08.360Z,684.00
2023-12-23T06:49:08.362Z,685.00
2023-12-23T06:50:08.361Z,685.00
2023-12-23T06:51:08.263Z,685.00
2023-12-23T06:52:08.255Z,683.00
2023-12-23T06:53:08.297Z,680.00
2023-12-23T06:54:08.270Z,682.00
2023-12-23T06:55:08.294Z,681.00
2023-12-23T06:56:08.528Z,680.00
2023-12-23T06:57:08.266Z,679.00
2023-12-23T06:58:08.263Z,675.00
2023-12-23T06:59:08.284Z,675.00
2023-12-23T07:00:08.267Z,678.00
2023-12-23T07:01:08.319Z,677.00
2023-12-23T07:02:08.303Z,676.00
2023-12-23T07:03:08.260Z,672.00
2023-12-23T07:04:08.394Z,671.00
2023-12-23T07:05:08.318Z,671.00
2023-12-23T07:06:08.351Z,675.00
2023-12-23T07:07:08.282Z,677.00
2023-12-23T07:08:08.300Z,679.00
2023-12-23T07:09:09.324Z,677.00
2023-12-23T07:10:08.344Z,674.00
2023-12-23T07:11:08.286Z,673.00
2023-12-23T07:12:08.269Z,672.00
2023-12-23T07:13:08.274Z,672.00
2023-12-23T07:14:08.301Z,673.00
2023-12-23T07:15:08.271Z,672.00
2023-12-23T07:16:08.275Z,670.00
2023-12-23T07:17:08.296Z,670.00
2023-12-23T07:18:08.465Z,669.00
2023-12-23T07:19:08.330Z,667.00
2023-12-23T07:20:08.313Z,668.00
2023-12-23T07:21:09.274Z,665.00
2023-12-23T07:22:08.285Z,666.00
2023-12-23T07:23:08.387Z,669.00
2023-12-23T07:24:08.289Z,670.00
2023-12-23T07:25:08.297Z,670.00
2023-12-23T07:26:08.323Z,671.00
2023-12-23T07:27:08.294Z,670.00
2023-12-23T07:28:08.298Z,667.00
2023-12-23T07:29:08.349Z,667.00
2023-12-23T07:30:09.314Z,666.00
2023-12-23T07:31:08.313Z,667.00
2023-12-23T07:32:08.343Z,668.00
2023-12-23T07:33:08.458Z,669.00
2023-12-23T07:34:08.412Z,668.00
2023-12-23T07:35:08.350Z,667.00
2023-12-23T07:36:08.309Z,666.00
2023-12-23T07:37:08.318Z,666.00
2023-12-23T07:38:08.335Z,664.00
2023-12-23T07:39:08.316Z,667.00
2023-12-23T07:40:08.327Z,670.00
2023-12-23T07:41:08.351Z,669.00
2023-12-23T07:42:08.324Z,669.00
2023-12-23T07:43:08.370Z,669.00
2023-12-23T07:44:08.425Z,669.00
2023-12-23T07:45:08.327Z,670.00
2023-12-23T07:46:08.349Z,670.00
2023-12-23T07:47:08.389Z,668.00
2023-12-23T07:48:08.379Z,668.00
2023-12-23T07:49:08.385Z,667.00
2023-12-23T07:50:08.359Z,669.00
2023-12-23T07:51:08.332Z,669.00
2023-12-23T07:52:08.331Z,672.00
2023-12-23T07:53:08.388Z,672.00
2023-12-23T07:54:08.397Z,668.00
2023-12-23T07:55:08.336Z,667.00
2023-12-23T07:56:08.369Z,664.00
2023-12-23T07:57:08.336Z,664.00
2023-12-23T07:58:08.337Z,663.00
2023-12-23T07:59:08.375Z,661.00
2023-12-23T08:00:08.345Z,664.00
2023-12-23T08:01:08.373Z,663.00
2023-12-23T08:02:08.360Z,663.00
2023-12-23T08:03:08.357Z,663.00
2023-12-23T08:04:08.387Z,661.00
2023-12-23T08:05:09.679Z,660.00
2023-12-23T08:06:08.593Z,660.00
2023-12-23T08:07:08.458Z,658.00
2023-12-23T08:08:08.461Z,657.00
2023-12-23T08:09:08.403Z,658.00
2023-12-23T08:10:08.408Z,656.00
2023-12-23T08:11:08.428Z,655.00
2023-12-23T08:12:08.425Z,654.00
2023-12-23T08:13:08.471Z,655.00
2023-12-23T08:14:08.479Z,655.00
2023-12-23T08:15:08.452Z,656.00
2023-12-23T08:16:08.467Z,657.00
2023-12-23T08:17:08.502Z,659.00
2023-12-23T08:18:08.582Z,661.00
2023-12-23T08:19:08.524Z,662.00
2023-12-23T08:20:08.604Z,667.00
2023-12-23T08:21:08.530Z,666.00
2023-12-23T08:22:08.502Z,666.00
2023-12-23T08:23:08.542Z,664.00
2023-12-23T08:24:08.505Z,661.00
2023-12-23T08:25:08.518Z,660.00
2023-12-23T08:26:08.605Z,659.00
2023-12-23T08:27:08.536Z,658.00
2023-12-23T08:28:08.543Z,659.00
2023-12-23T08:29:08.612Z,660.00
2023-12-23T08:30:08.616Z,659.00
2023-12-23T08:31:08.567Z,658.00
2023-12-23T08:32:08.642Z,660.00
2023-12-23T08:33:08.665Z,661.00
2023-12-23T08:34:08.668Z,662.00
2023-12-23T08:35:08.644Z,662.00
2023-12-23T08:36:08.616Z,658.00
2023-12-23T08:37:08.637Z,656.00
2023-12-23T08:38:08.681Z,659.00
2023-12-23T08:39:08.653Z,661.00
2023-12-23T08:40:08.649Z,659.00
2023-12-23T08:41:08.720Z,656.00
2023-12-23T08:42:08.693Z,656.00
2023-12-23T08:43:08.691Z,653.00
2023-12-23T08:44:08.729Z,653.00
2023-12-23T08:45:08.727Z,653.00
2023-12-23T08:46:08.729Z,653.00
2023-12-23T08:47:08.795Z,649.00
2023-12-23T08:48:08.835Z,646.00
2023-12-23T08:49:08.853Z,646.00
2023-12-23T08:50:08.958Z,646.00
2023-12-23T08:51:08.800Z,646.00
2023-12-23T08:52:08.802Z,645.00
2023-12-23T08:53:08.852Z,649.00
2023-12-23T08:54:08.830Z,649.00
2023-12-23T08:55:08.833Z,647.00
2023-12-23T08:56:08.909Z,649.00
2023-12-23T08:57:08.849Z,650.00
2023-12-23T08:58:08.868Z,652.00
2023-12-23T08:59:08.932Z,651.00
2023-12-23T09:00:08.874Z,651.00
2023-12-23T09:01:08.925Z,653.00
2023-12-23T09:02:08.949Z,652.00
2023-12-23T09:03:08.974Z,652.00
2023-12-23T09:04:08.923Z,652.00
2023-12-23T09:05:08.977Z,653.00
2023-12-23T09:06:08.957Z,654.00
2023-12-23T09:07:08.953Z,653.00
2023-12-23T09:08:09.080Z,651.00
2023-12-23T09:09:09.073Z,652.00
2023-12-23T09:10:08.968Z,653.00
2023-12-23T09:11:08.997Z,654.00
2023-12-23T09:12:09.030Z,653.00
2023-12-23T09:13:09.003Z,651.00
2023-12-23T09:14:09.030Z,648.00
2023-12-23T09:15:09.030Z,648.00
2023-12-23T09:16:09.049Z,648.00
2023-12-23T09:17:09.073Z,647.00
2023-12-23T09:18:09.227Z,647.00
2023-12-23T09:19:09.187Z,649.00
2023-12-23T09:20:09.129Z,651.00
2023-12-23T09:21:09.145Z,654.00
2023-12-23T09:22:09.173Z,655.00
2023-12-23T09:23:09.278Z,653.00
2023-12-23T09:24:09.218Z,652.00
2023-12-23T09:25:09.229Z,654.00
2023-12-23T09:26:09.288Z,653.00
2023-12-23T09:27:09.281Z,653.00
2023-12-23T09:28:09.296Z,652.00
2023-12-23T09:29:09.337Z,650.00
2023-12-23T09:30:09.391Z,649.00
2023-12-23T09:31:09.388Z,649.00
2023-12-23T09:32:09.431Z,647.00
2023-12-23T09:33:09.465Z,646.00
2023-12-23T09:34:09.517Z,647.00
2023-12-23T09:35:09.496Z,645.00
2023-12-23T09:36:09.522Z,645.00
2023-12-23T09:37:09.521Z,643.00
2023-12-23T09:38:09.579Z,641.00
2023-12-23T09:39:09.520Z,644.00
2023-12-23T09:40:09.568Z,645.00
2023-12-23T09:41:09.570Z,643.00
2023-12-23T09:42:09.548Z,644.00
2023-12-23T09:43:09.564Z,647.00
2023-12-23T09:44:09.584Z,648.00
2023-12-23T09:45:09.580Z,648.00
2023-12-23T09:46:09.593Z,652.00
2023-12-23T09:47:09.644Z,649.00
2023-12-23T09:48:09.712Z,648.00
2023-12-23T09:49:09.762Z,648.00
2023-12-23T09:50:09.767Z,647.00
2023-12-23T09:51:09.747Z,648.00
2023-12-23T09:52:09.805Z,648.00
2023-12-23T09:53:09.906Z,649.00
2023-12-23T09:54:09.966Z,648.00
2023-12-23T09:55:09.917Z,646.00
2023-12-23T09:56:09.965Z,647.00
2023-12-23T09:57:09.955Z,647.00
2023-12-23T09:58:09.986Z,646.00
2023-12-23T09:59:10.149Z,648.00
2023-12-23T10:00:10.133Z,646.00
2023-12-23T10:01:10.115Z,648.00
2023-12-23T10:02:10.185Z,649.00
2023-12-23T10:03:10.242Z,652.00
2023-12-23T10:04:10.208Z,649.00
2023-12-23T10:05:10.373Z,649.00
2023-12-23T10:06:10.329Z,649.00
2023-12-23T10:07:10.351Z,645.00
2023-12-23T10:08:10.452Z,643.00
2023-12-23T10:09:10.447Z,643.00
2023-12-23T10:10:10.530Z,642.00
2023-12-23T10:11:10.608Z,642.00
2023-12-23T10:12:10.627Z,642.00
2023-12-23T10:13:10.710Z,642.00
2023-12-23T10:14:10.773Z,644.00
2023-12-23T10:15:10.820Z,646.00
2023-12-23T10:16:10.865Z,642.00
2023-12-23T10:17:10.924Z,641.00
2023-12-23T10:18:11.067Z,640.00
2023-12-23T10:19:11.058Z,638.00
2023-12-23T10:20:11.032Z,637.00
2023-12-23T10:21:11.030Z,635.00
2023-12-23T10:22:11.073Z,639.00
2023-12-23T10:23:11.116Z,640.00
2023-12-23T10:24:11.146Z,639.00
2023-12-23T10:25:11.176Z,638.00
2023-12-23T10:26:11.249Z,636.00
2023-12-23T10:27:11.250Z,638.00
2023-12-23T10:28:11.317Z,638.00
2023-12-23T10:29:11.343Z,639.00
2023-12-23T10:30:11.440Z,638.00
2023-12-23T10:31:11.469Z,638.00
2023-12-23T10:32:11.571Z,638.00
2023-12-23T10:33:11.697Z,637.00
2023-12-23T10:34:11.739Z,640.00
2023-12-23T10:35:14.719Z,644.00
2023-12-23T10:36:11.730Z,645.00
2023-12-23T10:37:11.743Z,646.00
2023-12-23T10:38:11.814Z,643.00
2023-12-23T10:39:11.740Z,641.00
2023-12-23T10:40:11.746Z,643.00
2023-12-23T10:41:11.804Z,640.00
2023-12-23T10:42:11.752Z,638.00
2023-12-23T10:43:11.741Z,641.00
2023-12-23T10:44:11.769Z,638.00
2023-12-23T10:45:11.763Z,635.00
2023-12-23T10:46:11.749Z,638.00
2023-12-23T10:47:11.790Z,638.00
2023-12-23T10:48:11.827Z,640.00
2023-12-23T10:49:11.951Z,638.00
2023-12-23T10:50:11.776Z,639.00
2023-12-23T10:51:11.821Z,637.00
2023-12-23T10:52:11.764Z,638.00
2023-12-23T10:53:11.794Z,635.00
2023-12-23T10:54:11.771Z,635.00
2023-12-23T10:55:11.758Z,634.00
2023-12-23T10:56:14.854Z,634.00
2023-12-23T10:57:11.745Z,635.00
2023-12-23T10:58:11.746Z,638.00
2023-12-23T10:59:11.773Z,640.00
2023-12-23T11:00:11.762Z,640.00
2023-12-23T11:01:11.798Z,641.00
2023-12-23T11:02:11.815Z,639.00
2023-12-23T11:03:11.784Z,639.00
2023-12-23T11:04:11.772Z,637.00
2023-12-23T11:05:11.790Z,634.00
2023-12-23T11:06:11.807Z,633.00
2023-12-23T11:07:11.777Z,632.00
2023-12-23T11:08:17.159Z,633.00
2023-12-23T11:09:12.778Z,634.00
2023-12-23T11:10:11.773Z,635.00
2023-12-23T11:11:11.803Z,633.00
2023-12-23T11:12:11.784Z,635.00
2023-12-23T11:13:11.765Z,633.00
2023-12-23T11:14:11.825Z,633.00
2023-12-23T11:15:11.774Z,634.00
2023-12-23T11:16:12.061Z,633.00
2023-12-23T11:17:11.821Z,631.00
2023-12-23T11:18:11.974Z,628.00
2023-12-23T11:19:11.883Z,627.00
2023-12-23T11:20:11.983Z,628.00
2023-12-23T11:21:12.001Z,625.00
2023-12-23T11:22:11.986Z,623.00
2023-12-23T11:23:12.068Z,624.00
2023-12-23T11:24:12.080Z,619.00
2023-12-23T11:25:12.129Z,618.00
2023-12-23T11:26:12.252Z,619.00
2023-12-23T11:27:12.227Z,618.00
2023-12-23T11:28:12.288Z,620.00
2023-12-23T11:29:12.352Z,621.00
2023-12-23T11:30:12.437Z,621.00
2023-12-23T11:31:12.423Z,621.00
2023-12-23T11:32:12.483Z,619.00
2023-12-23T11:33:12.582Z,619.00
2023-12-23T11:34:12.628Z,622.00
2023-12-23T11:35:12.667Z,623.00
2023-12-23T11:36:13.370Z,622.00
2023-12-23T11:37:12.750Z,621.00
2023-12-23T11:38:12.811Z,621.00
2023-12-23T11:39:12.822Z,622.00
2023-12-23T11:40:12.864Z,624.00
2023-12-23T11:41:12.985Z,619.00
2023-12-23T11:42:12.965Z,616.00
2023-12-23T11:43:13.006Z,615.00
2023-12-23T11:44:13.131Z,616.00
2023-12-23T11:45:13.110Z,617.00
2023-12-23T11:46:13.156Z,617.00
2023-12-23T11:47:13.228Z,618.00
2023-12-23T11:48:13.285Z,615.00
2023-12-23T11:49:13.423Z,612.00
2023-12-23T11:50:13.655Z,614.00
2023-12-23T11:51:13.440Z,610.00
2023-12-23T11:52:13.497Z,610.00
2023-12-23T11:53:13.642Z,614.00
2023-12-23T11:54:13.669Z,613.00
2023-12-23T11:55:13.680Z,615.00
2023-12-23T11:56:13.760Z,616.00
2023-12-23T11:57:13.794Z,616.00
2023-12-23T11:58:13.860Z,617.00
2023-12-23T11:59:13.939Z,615.00
2023-12-23T12:00:13.976Z,616.00
2023-12-23T12:01:14.090Z,614.00
2023-12-23T12:02:14.120Z,614.00
2023-12-23T12:03:14.157Z,614.00
2023-12-23T12:04:14.278Z,610.00
2023-12-23T12:05:14.432Z,609.00
2023-12-23T12:06:14.385Z,609.00
2023-12-23T12:07:14.413Z,608.00
2023-12-23T12:08:14.530Z,606.00
2023-12-23T12:09:14.534Z,608.00
2023-12-23T12:10:14.590Z,609.00
2023-12-23T12:11:14.720Z,609.00
2023-12-23T12:12:14.722Z,607.00
2023-12-23T12:13:14.779Z,607.00
2023-12-23T12:14:14.933Z,608.00
2023-12-23T12:15:14.903Z,607.00
2023-12-23T12:16:14.998Z,601.00
2023-12-23T12:17:15.055Z,600.00
2023-12-23T12:18:15.186Z,601.00
2023-12-23T12:19:15.292Z,601.00
2023-12-23T12:20:15.220Z,603.00
2023-12-23T12:21:15.277Z,605.00
2023-12-23T12:22:15.342Z,603.00
2023-12-23T12:23:15.477Z,602.00
2023-12-23T12:24:15.484Z,599.00
2023-12-23T12:25:15.523Z,601.00
2023-12-23T12:26:15.604Z,602.00
2023-12-23T12:27:15.743Z,605.00
2023-12-23T12:28:15.732Z,603.00
2023-12-23T12:29:15.837Z,602.00